4XCGI LLHZ-LLHZ

Flight info

Callsign 4XCGI
Flight time 0h 7m
Altitude 0800
Route TRAINING AREA
Aircraft C172/L-SD/C

Departure

Time 2026-04-18 19:36
Airport Herzliya Airport (LLHZ)

Arrival

Time 2026-04-18 19:43
Airport Herzliya Airport (LLHZ)
Time Latitude Longitude Altitude Speed Heading
2026-04-18 19:26 32.18058 34.83181 99 ft 0 kts 20°
2026-04-18 19:30 32.18069 34.83192 100 ft 8 kts 67°
2026-04-18 19:30 32.18048 34.83275 101 ft 10 kts 108°
2026-04-18 19:30 32.18019 34.83372 104 ft 15 kts 108°
2026-04-18 19:30 32.17983 34.83494 107 ft 16 kts 109°
2026-04-18 19:31 32.17968 34.83544 108 ft 0 kts 109°
2026-04-18 19:31 32.17956 34.83587 109 ft 9 kts 109°
2026-04-18 19:31 32.17946 34.83621 111 ft 0 kts 108°
2026-04-18 19:31 32.17930 34.83677 114 ft 12 kts 109°
2026-04-18 19:32 32.17905 34.83761 118 ft 7 kts 109°
2026-04-18 19:32 32.17900 34.83777 117 ft 0 kts 108°
2026-04-18 19:32 32.17898 34.83785 118 ft 6 kts 109°
2026-04-18 19:32 32.17881 34.83839 119 ft 0 kts 102°
2026-04-18 19:34 32.17881 34.83844 120 ft 5 kts 98°
2026-04-18 19:34 32.17912 34.83859 123 ft 4 kts 291°
2026-04-18 19:34 32.17912 34.83858 123 ft 0 kts 289°
2026-04-18 19:35 32.17936 34.83778 121 ft 34 kts 291°
2026-04-18 19:35 32.18071 34.83326 171 ft 71 kts 287°
2026-04-18 19:35 32.18355 34.82823 390 ft 79 kts 325°
2026-04-18 19:35 32.18904 34.82722 624 ft 81 kts
2026-04-18 19:36 32.19357 34.83063 853 ft 86 kts 64°
2026-04-18 19:36 32.19415 34.83838 840 ft 112 kts 104°
2026-04-18 19:36 32.19207 34.84688 826 ft 103 kts 114°
2026-04-18 19:36 32.18889 34.85343 816 ft 85 kts 158°
2026-04-18 19:37 32.18354 34.85363 691 ft 74 kts 195°
2026-04-18 19:37 32.17872 34.85225 580 ft 65 kts 208°
2026-04-18 19:37 32.17642 34.84847 368 ft 62 kts 271°
2026-04-18 19:37 32.17766 34.84351 271 ft 61 kts 285°
2026-04-18 19:38 32.17911 34.83874 239 ft 64 kts 286°
2026-04-18 19:38 32.18088 34.83341 368 ft 73 kts 288°
2026-04-18 19:38 32.18351 34.82819 566 ft 82 kts 319°
2026-04-18 19:38 32.18916 34.82701 786 ft 87 kts
2026-04-18 19:39 32.19467 34.83060 858 ft 106 kts 69°
2026-04-18 19:39 32.19425 34.83927 855 ft 109 kts 109°
2026-04-18 19:39 32.19137 34.84624 994 ft 69 kts 175°
2026-04-18 19:39 32.18670 34.84564 804 ft 65 kts 205°
2026-04-18 19:40 32.18222 34.84418 555 ft 66 kts 194°
2026-04-18 19:40 32.17878 34.84170 280 ft 62 kts 255°
2026-04-18 19:40 32.17971 34.83671 116 ft 54 kts 287°
2026-04-18 19:40 32.18095 34.83225 144 ft 66 kts 287°
2026-04-18 19:41 32.18329 34.82739 351 ft 72 kts 324°
2026-04-18 19:41 32.18847 34.82746 528 ft 81 kts 15°
2026-04-18 19:41 32.19347 34.83037 731 ft 88 kts 37°
2026-04-18 19:41 32.19541 34.83728 838 ft 98 kts 109°
2026-04-18 19:42 32.19288 34.84507 858 ft 106 kts 118°
2026-04-18 19:42 32.18855 34.84731 809 ft 68 kts 206°
2026-04-18 19:42 32.18430 34.84545 653 ft 66 kts 205°
2026-04-18 19:42 32.18011 34.84392 417 ft 61 kts 217°
2026-04-18 19:43 32.17886 34.83955 174 ft 61 kts 282°
2026-04-18 19:43 32.17997 34.83555 107 ft 48 kts 289°
2026-04-18 19:43 32.18140 34.83071 274 ft 58 kts 290°
2026-04-18 19:43 32.18508 34.82759 427 ft 74 kts 341°
2026-04-18 19:44 32.19048 34.82788 628 ft 81 kts 11°
2026-04-18 19:44 32.19498 34.83191 778 ft 96 kts 70°
2026-04-18 19:44 32.19196 34.84882 826 ft 107 kts 116°
2026-04-18 19:45 32.18813 34.85226 831 ft 70 kts 210°
2026-04-18 19:45 32.18442 34.84952 721 ft 62 kts 219°
2026-04-18 19:45 32.18081 34.84680 539 ft 62 kts 222°
2026-04-18 19:45 32.17861 34.84260 311 ft 62 kts 257°
2026-04-18 19:46 32.17947 34.83745 118 ft 63 kts 284°
2026-04-18 19:46 32.18102 34.83227 200 ft 69 kts 287°
2026-04-18 19:46 32.18437 34.82777 391 ft 84 kts 335°
2026-04-18 19:46 32.18982 34.82801 665 ft 82 kts 10°
2026-04-18 19:47 32.19460 34.83217 810 ft 97 kts 67°
2026-04-18 19:47 32.19435 34.84046 810 ft 107 kts 115°
2026-04-18 19:47 32.19153 34.84852 815 ft 106 kts 120°
2026-04-18 19:47 32.18759 34.85396 815 ft 75 kts 176°
2026-04-18 19:48 32.18288 34.85339 653 ft 66 kts 197°
2026-04-18 19:48 32.17839 34.85190 492 ft 64 kts 210°
2026-04-18 19:48 32.17656 34.84795 368 ft 55 kts 277°
2026-04-18 19:48 32.17779 34.84305 244 ft 69 kts 284°
2026-04-18 19:49 32.17924 34.83813 126 ft 59 kts 287°
2026-04-18 19:49 32.18048 34.83395 102 ft 68 kts 290°
2026-04-18 19:49 32.18226 34.82878 333 ft 69 kts 300°
2026-04-18 19:49 32.18686 34.82648 520 ft 81 kts 359°
2026-04-18 19:50 32.19246 34.82824 776 ft 82 kts 19°
2026-04-18 19:50 32.19777 34.83259 821 ft 104 kts 46°
2026-04-18 19:50 32.20235 34.83930 880 ft 105 kts 53°
2026-04-18 19:50 32.20875 34.84334 823 ft 109 kts
2026-04-18 19:51 32.21604 34.84497 835 ft 107 kts
2026-04-18 19:51 32.22296 34.84694 820 ft 92 kts 11°
2026-04-18 19:51 32.22842 34.84915 822 ft 79 kts 14°
2026-04-18 19:51 32.23338 34.85135 841 ft 74 kts 17°
2026-04-18 19:52 32.23825 34.85330 833 ft 78 kts 11°
2026-04-18 19:52 32.24438 34.85556 847 ft 103 kts 13°
2026-04-18 19:52 32.25107 34.85789 1156 ft 84 kts 11°
2026-04-18 19:52 32.25722 34.86040 1196 ft 90 kts 14°
2026-04-18 19:53 32.26258 34.86298 1029 ft 83 kts 18°
2026-04-18 19:53 32.26742 34.86615 849 ft 82 kts 50°
2026-04-18 19:53 32.26252 34.87331 879 ft 74 kts 192°
2026-04-18 19:54 32.25904 34.87274 1050 ft 70 kts 194°
2026-04-18 19:54 32.25433 34.87237 1260 ft 74 kts 190°
2026-04-18 19:54 32.24977 34.87030 1300 ft 74 kts 271°
2026-04-18 19:54 32.25360 34.87220 1236 ft 104 kts 107°
2026-04-18 19:55 32.24801 34.87391 1183 ft 94 kts 200°
2026-04-18 19:55 32.24139 34.87236 1148 ft 104 kts 178°
2026-04-18 19:55 32.23480 34.87601 1222 ft 103 kts 162°
2026-04-18 19:55 32.22805 34.87970 1170 ft 111 kts 166°
2026-04-18 19:56 32.22127 34.88024 1226 ft 92 kts 214°
2026-04-18 19:56 32.21633 34.87573 1222 ft 91 kts 225°
2026-04-18 19:56 32.21199 34.87044 1213 ft 88 kts 231°
2026-04-18 19:56 32.20812 34.86507 1190 ft 77 kts 233°
2026-04-18 19:57 32.20468 34.86048 1152 ft 75 kts 226°
2026-04-18 19:57 32.20046 34.85730 1182 ft 69 kts 211°
2026-04-18 19:57 32.19561 34.85627 1165 ft 69 kts 196°
2026-04-18 19:57 32.19095 34.85527 954 ft 69 kts 199°
2026-04-18 19:58 32.18626 34.85411 750 ft 69 kts 195°
2026-04-18 19:58 32.18153 34.85278 533 ft 74 kts 197°
2026-04-18 19:58 32.17673 34.85071 504 ft 66 kts 239°
2026-04-18 19:58 32.17724 34.84523 308 ft 71 kts 281°
2026-04-18 19:59 32.17888 34.83938 158 ft 75 kts 285°
2026-04-18 19:59 32.18042 34.83417 103 ft 58 kts 289°
2026-04-18 19:59 32.18123 34.83144 96 ft 23 kts 289°
2026-04-18 19:59 32.18120 34.83046 96 ft 9 kts 286°
2026-04-18 20:00 32.18130 34.83023 96 ft 0 kts 297°
2026-04-18 20:00 32.18132 34.83018 96 ft 6 kts 300°
2026-04-18 20:00 32.18169 34.82915 94 ft 17 kts 289°
2026-04-18 20:01 32.18206 34.82847 94 ft 7 kts 332°
2026-04-18 20:01 32.18212 34.82837 94 ft 0 kts 284°